sensor_id;sensor_type;location;lat;lon;timestamp;temperature;humidity
16247;DHT22;8231;50.866;7.944;2022-10-16T00:01:07;11.30;99.90
16247;DHT22;8231;50.866;7.944;2022-10-16T00:03:35;11.30;99.90
16247;DHT22;8231;50.866;7.944;2022-10-16T00:06:04;11.30;99.90
16247;DHT22;8231;50.866;7.944;2022-10-16T00:08:32;11.30;99.90
16247;DHT22;8231;50.866;7.944;2022-10-16T00:11:01;11.30;99.90
16247;DHT22;8231;50.866;7.944;2022-10-16T00:13:30;11.20;99.90
16247;DHT22;8231;50.866;7.944;2022-10-16T00:15:59;11.20;99.90
16247;DHT22;8231;50.866;7.944;2022-10-16T00:18:29;11.20;99.90
16247;DHT22;8231;50.866;7.944;2022-10-16T00:21:02;11.30;99.90
16247;DHT22;8231;50.866;7.944;2022-10-16T00:23:51;11.20;99.90
16247;DHT22;8231;50.866;7.944;2022-10-16T00:26:19;11.20;99.90
16247;DHT22;8231;50.866;7.944;2022-10-16T00:28:47;11.20;99.90
16247;DHT22;8231;50.866;7.944;2022-10-16T00:31:17;11.20;99.90
16247;DHT22;8231;50.866;7.944;2022-10-16T00:33:47;11.10;99.90
16247;DHT22;8231;50.866;7.944;2022-10-16T00:36:17;11.20;99.90
16247;DHT22;8231;50.866;7.944;2022-10-16T00:38:45;11.20;99.90
16247;DHT22;8231;50.866;7.944;2022-10-16T00:41:16;11.20;99.90
16247;DHT22;8231;50.866;7.944;2022-10-16T00:43:46;11.20;99.90
16247;DHT22;8231;50.866;7.944;2022-10-16T00:46:17;11.20;99.90
16247;DHT22;8231;50.866;7.944;2022-10-16T00:48:51;11.20;99.90
16247;DHT22;8231;50.866;7.944;2022-10-16T00:51:24;11.20;99.90
16247;DHT22;8231;50.866;7.944;2022-10-16T00:53:54;11.20;99.90
16247;DHT22;8231;50.866;7.944;2022-10-16T00:56:22;11.20;99.90
16247;DHT22;8231;50.866;7.944;2022-10-16T00:58:51;11.20;99.90
16247;DHT22;8231;50.866;7.944;2022-10-16T01:01:19;11.20;99.90
16247;DHT22;8231;50.866;7.944;2022-10-16T01:03:53;11.20;99.90
16247;DHT22;8231;50.866;7.944;2022-10-16T01:06:23;11.20;99.90
16247;DHT22;8231;50.866;7.944;2022-10-16T01:11:54;11.20;99.90
16247;DHT22;8231;50.866;7.944;2022-10-16T01:14:32;11.10;99.90
16247;DHT22;8231;50.866;7.944;2022-10-16T01:17:04;11.30;99.90
16247;DHT22;8231;50.866;7.944;2022-10-16T01:19:54;11.40;99.90
16247;DHT22;8231;50.866;7.944;2022-10-16T01:22:30;11.20;99.90
16247;DHT22;8231;50.866;7.944;2022-10-16T01:25:07;11.20;99.90
16247;DHT22;8231;50.866;7.944;2022-10-16T01:27:40;11.20;99.90
16247;DHT22;8231;50.866;7.944;2022-10-16T01:30:58;11.20;99.90
16247;DHT22;8231;50.866;7.944;2022-10-16T01:33:30;11.20;99.90
16247;DHT22;8231;50.866;7.944;2022-10-16T01:36:05;11.20;99.90
16247;DHT22;8231;50.866;7.944;2022-10-16T01:38:37;11.30;99.90
16247;DHT22;8231;50.866;7.944;2022-10-16T01:41:09;11.30;99.90
16247;DHT22;8231;50.866;7.944;2022-10-16T01:43:43;11.30;99.90
16247;DHT22;8231;50.866;7.944;2022-10-16T01:46:14;11.30;99.90
16247;DHT22;8231;50.866;7.944;2022-10-16T01:48:43;11.40;99.90
16247;DHT22;8231;50.866;7.944;2022-10-16T01:51:13;11.40;99.90
16247;DHT22;8231;50.866;7.944;2022-10-16T01:53:44;11.50;99.90
16247;DHT22;8231;50.866;7.944;2022-10-16T01:56:14;11.60;99.90
16247;DHT22;8231;50.866;7.944;2022-10-16T01:58:47;11.70;99.90
16247;DHT22;8231;50.866;7.944;2022-10-16T02:01:19;11.70;99.90
16247;DHT22;8231;50.866;7.944;2022-10-16T02:03:50;11.70;99.90
16247;DHT22;8231;50.866;7.944;2022-10-16T02:06:20;11.70;99.90
16247;DHT22;8231;50.866;7.944;2022-10-16T02:08:48;11.80;99.90
16247;DHT22;8231;50.866;7.944;2022-10-16T02:11:16;11.80;99.90
16247;DHT22;8231;50.866;7.944;2022-10-16T02:13:49;11.80;99.90
16247;DHT22;8231;50.866;7.944;2022-10-16T02:16:18;11.80;99.90
16247;DHT22;8231;50.866;7.944;2022-10-16T02:18:47;11.80;99.90
16247;DHT22;8231;50.866;7.944;2022-10-16T02:21:19;11.80;99.90
16247;DHT22;8231;50.866;7.944;2022-10-16T02:23:54;11.80;99.90
16247;DHT22;8231;50.866;7.944;2022-10-16T02:26:27;11.80;99.90
16247;DHT22;8231;50.866;7.944;2022-10-16T02:29:01;11.90;99.90
16247;DHT22;8231;50.866;7.944;2022-10-16T02:31:34;12.00;99.90
16247;DHT22;8231;50.866;7.944;2022-10-16T02:34:04;12.00;99.90
16247;DHT22;8231;50.866;7.944;2022-10-16T02:36:35;12.00;99.90
16247;DHT22;8231;50.866;7.944;2022-10-16T02:39:04;12.00;99.90
16247;DHT22;8231;50.866;7.944;2022-10-16T02:41:33;12.20;99.90
16247;DHT22;8231;50.866;7.944;2022-10-16T02:44:03;12.10;99.90
16247;DHT22;8231;50.866;7.944;2022-10-16T02:46:31;12.10;99.90
16247;DHT22;8231;50.866;7.944;2022-10-16T02:48:59;12.00;99.90
16247;DHT22;8231;50.866;7.944;2022-10-16T02:51:27;12.00;99.90
16247;DHT22;8231;50.866;7.944;2022-10-16T02:53:56;11.90;99.90
16247;DHT22;8231;50.866;7.944;2022-10-16T02:56:24;11.90;99.90
16247;DHT22;8231;50.866;7.944;2022-10-16T02:58:52;12.00;99.90
16247;DHT22;8231;50.866;7.944;2022-10-16T03:01:21;11.80;99.90
16247;DHT22;8231;50.866;7.944;2022-10-16T03:03:50;11.80;99.90
16247;DHT22;8231;50.866;7.944;2022-10-16T03:06:18;11.80;99.90
16247;DHT22;8231;50.866;7.944;2022-10-16T03:08:46;11.70;99.90
16247;DHT22;8231;50.866;7.944;2022-10-16T03:11:14;11.70;99.90
16247;DHT22;8231;50.866;7.944;2022-10-16T03:13:42;11.60;99.90
16247;DHT22;8231;50.866;7.944;2022-10-16T03:16:11;11.60;99.90
16247;DHT22;8231;50.866;7.944;2022-10-16T03:18:40;11.50;99.90
16247;DHT22;8231;50.866;7.944;2022-10-16T03:21:08;11.50;99.90
16247;DHT22;8231;50.866;7.944;2022-10-16T03:23:36;11.60;99.90
16247;DHT22;8231;50.866;7.944;2022-10-16T03:26:04;11.50;99.90
16247;DHT22;8231;50.866;7.944;2022-10-16T03:28:32;11.50;99.90
16247;DHT22;8231;50.866;7.944;2022-10-16T03:31:01;11.50;99.90
16247;DHT22;8231;50.866;7.944;2022-10-16T03:33:29;11.50;99.90
16247;DHT22;8231;50.866;7.944;2022-10-16T03:35:58;11.50;99.90
16247;DHT22;8231;50.866;7.944;2022-10-16T03:38:27;11.50;99.90
16247;DHT22;8231;50.866;7.944;2022-10-16T03:40:55;11.60;99.90
16247;DHT22;8231;50.866;7.944;2022-10-16T03:43:23;11.60;99.90
16247;DHT22;8231;50.866;7.944;2022-10-16T03:45:51;11.70;99.90
16247;DHT22;8231;50.866;7.944;2022-10-16T03:48:20;11.80;99.90
16247;DHT22;8231;50.866;7.944;2022-10-16T03:50:48;11.80;99.90
16247;DHT22;8231;50.866;7.944;2022-10-16T03:53:18;11.80;99.90
16247;DHT22;8231;50.866;7.944;2022-10-16T03:55:46;11.90;99.90
16247;DHT22;8231;50.866;7.944;2022-10-16T03:58:15;11.90;99.90
16247;DHT22;8231;50.866;7.944;2022-10-16T04:00:44;12.00;99.90
16247;DHT22;8231;50.866;7.944;2022-10-16T04:03:13;12.00;99.90
16247;DHT22;8231;50.866;7.944;2022-10-16T04:05:41;12.00;99.90
16247;DHT22;8231;50.866;7.944;2022-10-16T04:08:09;12.00;99.90
16247;DHT22;8231;50.866;7.944;2022-10-16T04:10:39;12.10;99.90
16247;DHT22;8231;50.866;7.944;2022-10-16T04:13:07;12.00;99.90
16247;DHT22;8231;50.866;7.944;2022-10-16T04:15:35;12.00;99.90
16247;DHT22;8231;50.866;7.944;2022-10-16T04:18:04;12.00;99.90
16247;DHT22;8231;50.866;7.944;2022-10-16T04:20:33;11.90;99.90
16247;DHT22;8231;50.866;7.944;2022-10-16T04:23:01;12.00;99.90
16247;DHT22;8231;50.866;7.944;2022-10-16T04:25:30;12.00;99.90
16247;DHT22;8231;50.866;7.944;2022-10-16T04:27:59;12.00;99.90
16247;DHT22;8231;50.866;7.944;2022-10-16T04:30:29;12.10;99.90
16247;DHT22;8231;50.866;7.944;2022-10-16T04:32:57;12.10;99.90
16247;DHT22;8231;50.866;7.944;2022-10-16T04:35:30;12.10;99.90
16247;DHT22;8231;50.866;7.944;2022-10-16T04:37:58;12.20;99.90
16247;DHT22;8231;50.866;7.944;2022-10-16T04:40:27;12.20;99.90
16247;DHT22;8231;50.866;7.944;2022-10-16T04:42:55;12.30;99.90
16247;DHT22;8231;50.866;7.944;2022-10-16T04:45:24;12.30;99.90
16247;DHT22;8231;50.866;7.944;2022-10-16T04:47:52;12.40;99.90
16247;DHT22;8231;50.866;7.944;2022-10-16T04:50:21;12.40;99.90
16247;DHT22;8231;50.866;7.944;2022-10-16T04:53:04;12.40;99.90
16247;DHT22;8231;50.866;7.944;2022-10-16T04:55:32;12.50;99.90
16247;DHT22;8231;50.866;7.944;2022-10-16T04:58:01;12.50;99.90
16247;DHT22;8231;50.866;7.944;2022-10-16T05:00:31;12.40;99.90
16247;DHT22;8231;50.866;7.944;2022-10-16T05:02:59;12.50;99.90
16247;DHT22;8231;50.866;7.944;2022-10-16T05:05:32;12.60;99.90
16247;DHT22;8231;50.866;7.944;2022-10-16T05:08:01;12.70;99.90
16247;DHT22;8231;50.866;7.944;2022-10-16T05:10:29;12.60;99.90
16247;DHT22;8231;50.866;7.944;2022-10-16T05:12:58;12.60;99.90
16247;DHT22;8231;50.866;7.944;2022-10-16T05:15:26;12.60;99.90
16247;DHT22;8231;50.866;7.944;2022-10-16T05:17:55;12.70;99.90
16247;DHT22;8231;50.866;7.944;2022-10-16T05:20:24;12.60;99.90
16247;DHT22;8231;50.866;7.944;2022-10-16T05:22:52;12.60;99.90
16247;DHT22;8231;50.866;7.944;2022-10-16T05:25:20;12.60;99.90
16247;DHT22;8231;50.866;7.944;2022-10-16T05:27:49;12.60;99.90
16247;DHT22;8231;50.866;7.944;2022-10-16T05:30:18;12.70;99.90
16247;DHT22;8231;50.866;7.944;2022-10-16T05:32:47;12.70;99.90
16247;DHT22;8231;50.866;7.944;2022-10-16T05:35:18;12.70;99.90
16247;DHT22;8231;50.866;7.944;2022-10-16T05:37:47;12.80;99.90
16247;DHT22;8231;50.866;7.944;2022-10-16T05:40:16;12.70;99.90
16247;DHT22;8231;50.866;7.944;2022-10-16T05:42:44;12.70;99.90
16247;DHT22;8231;50.866;7.944;2022-10-16T05:45:13;12.80;99.90
16247;DHT22;8231;50.866;7.944;2022-10-16T05:47:41;12.70;99.90
16247;DHT22;8231;50.866;7.944;2022-10-16T05:50:09;12.70;99.90
16247;DHT22;8231;50.866;7.944;2022-10-16T05:52:39;12.70;99.90
16247;DHT22;8231;50.866;7.944;2022-10-16T05:55:07;12.70;99.90
16247;DHT22;8231;50.866;7.944;2022-10-16T05:57:35;12.70;99.90
16247;DHT22;8231;50.866;7.944;2022-10-16T06:00:04;12.70;99.90
16247;DHT22;8231;50.866;7.944;2022-10-16T06:02:38;12.60;99.90
16247;DHT22;8231;50.866;7.944;2022-10-16T06:05:07;12.60;99.90
16247;DHT22;8231;50.866;7.944;2022-10-16T06:07:35;12.70;99.90
16247;DHT22;8231;50.866;7.944;2022-10-16T06:10:06;12.70;99.90
16247;DHT22;8231;50.866;7.944;2022-10-16T06:12:35;12.70;99.90
16247;DHT22;8231;50.866;7.944;2022-10-16T06:15:04;12.80;99.90
16247;DHT22;8231;50.866;7.944;2022-10-16T06:17:32;12.90;99.90
16247;DHT22;8231;50.866;7.944;2022-10-16T06:20:01;13.00;99.90
16247;DHT22;8231;50.866;7.944;2022-10-16T06:22:29;13.00;99.90
16247;DHT22;8231;50.866;7.944;2022-10-16T06:24:57;13.00;99.90
16247;DHT22;8231;50.866;7.944;2022-10-16T06:27:27;13.00;99.90
16247;DHT22;8231;50.866;7.944;2022-10-16T06:29:55;13.20;99.90
16247;DHT22;8231;50.866;7.944;2022-10-16T06:32:24;13.10;99.90
16247;DHT22;8231;50.866;7.944;2022-10-16T06:34:52;13.10;99.90
16247;DHT22;8231;50.866;7.944;2022-10-16T06:37:20;13.20;99.90
16247;DHT22;8231;50.866;7.944;2022-10-16T06:39:48;13.30;99.90
16247;DHT22;8231;50.866;7.944;2022-10-16T06:42:19;13.40;99.90
16247;DHT22;8231;50.866;7.944;2022-10-16T06:44:48;13.40;99.90
16247;DHT22;8231;50.866;7.944;2022-10-16T06:47:16;13.40;99.90
16247;DHT22;8231;50.866;7.944;2022-10-16T06:49:44;13.40;99.90
16247;DHT22;8231;50.866;7.944;2022-10-16T06:52:20;13.50;99.90
16247;DHT22;8231;50.866;7.944;2022-10-16T06:54:49;13.50;99.90
16247;DHT22;8231;50.866;7.944;2022-10-16T06:57:17;13.50;99.90
16247;DHT22;8231;50.866;7.944;2022-10-16T06:59:45;13.60;99.90
16247;DHT22;8231;50.866;7.944;2022-10-16T07:02:18;13.60;99.90
16247;DHT22;8231;50.866;7.944;2022-10-16T07:04:46;13.60;99.90
16247;DHT22;8231;50.866;7.944;2022-10-16T07:07:14;13.60;99.90
16247;DHT22;8231;50.866;7.944;2022-10-16T07:09:42;13.60;99.90
16247;DHT22;8231;50.866;7.944;2022-10-16T07:12:10;13.60;99.90
16247;DHT22;8231;50.866;7.944;2022-10-16T07:14:38;13.60;99.90
16247;DHT22;8231;50.866;7.944;2022-10-16T07:17:06;13.60;99.90
16247;DHT22;8231;50.866;7.944;2022-10-16T07:19:36;13.60;99.90
16247;DHT22;8231;50.866;7.944;2022-10-16T07:22:04;13.60;99.90
16247;DHT22;8231;50.866;7.944;2022-10-16T07:24:33;13.70;99.90
16247;DHT22;8231;50.866;7.944;2022-10-16T07:27:01;13.80;99.90
16247;DHT22;8231;50.866;7.944;2022-10-16T07:29:29;13.90;99.90
16247;DHT22;8231;50.866;7.944;2022-10-16T07:31:57;14.00;99.90
16247;DHT22;8231;50.866;7.944;2022-10-16T07:34:25;14.10;99.90
16247;DHT22;8231;50.866;7.944;2022-10-16T07:36:55;14.20;99.90
16247;DHT22;8231;50.866;7.944;2022-10-16T07:39:23;14.30;99.90
16247;DHT22;8231;50.866;7.944;2022-10-16T07:41:51;14.40;99.90
16247;DHT22;8231;50.866;7.944;2022-10-16T07:44:20;14.60;99.90
16247;DHT22;8231;50.866;7.944;2022-10-16T07:46:48;14.60;99.90
16247;DHT22;8231;50.866;7.944;2022-10-16T07:49:16;14.60;99.90
16247;DHT22;8231;50.866;7.944;2022-10-16T07:51:44;14.60;99.90
16247;DHT22;8231;50.866;7.944;2022-10-16T07:54:13;14.70;99.90
16247;DHT22;8231;50.866;7.944;2022-10-16T07:56:42;14.80;99.90
16247;DHT22;8231;50.866;7.944;2022-10-16T07:59:10;14.90;99.90
16247;DHT22;8231;50.866;7.944;2022-10-16T08:01:38;15.10;99.90
16247;DHT22;8231;50.866;7.944;2022-10-16T08:04:06;15.20;99.90
16247;DHT22;8231;50.866;7.944;2022-10-16T08:06:35;15.30;99.90
16247;DHT22;8231;50.866;7.944;2022-10-16T08:09:04;15.40;99.90
16247;DHT22;8231;50.866;7.944;2022-10-16T08:11:34;15.40;99.90
16247;DHT22;8231;50.866;7.944;2022-10-16T08:14:02;15.40;99.90
16247;DHT22;8231;50.866;7.944;2022-10-16T08:16:30;15.40;99.90
16247;DHT22;8231;50.866;7.944;2022-10-16T08:18:58;15.50;99.90
16247;DHT22;8231;50.866;7.944;2022-10-16T08:21:27;15.70;99.90
16247;DHT22;8231;50.866;7.944;2022-10-16T08:23:55;15.80;99.90
16247;DHT22;8231;50.866;7.944;2022-10-16T08:26:25;15.80;99.90
16247;DHT22;8231;50.866;7.944;2022-10-16T08:28:55;15.90;99.90
16247;DHT22;8231;50.866;7.944;2022-10-16T08:31:24;16.00;99.90
16247;DHT22;8231;50.866;7.944;2022-10-16T08:33:53;16.20;99.90
16247;DHT22;8231;50.866;7.944;2022-10-16T08:36:21;16.30;99.90
16247;DHT22;8231;50.866;7.944;2022-10-16T08:38:50;16.40;99.90
16247;DHT22;8231;50.866;7.944;2022-10-16T08:41:31;16.50;99.90
16247;DHT22;8231;50.866;7.944;2022-10-16T08:44:24;16.40;99.90
16247;DHT22;8231;50.866;7.944;2022-10-16T08:47:02;16.40;99.90
16247;DHT22;8231;50.866;7.944;2022-10-16T08:49:37;16.50;99.90
16247;DHT22;8231;50.866;7.944;2022-10-16T08:52:11;16.40;99.90
16247;DHT22;8231;50.866;7.944;2022-10-16T08:54:42;16.50;99.90
16247;DHT22;8231;50.866;7.944;2022-10-16T08:57:13;16.50;99.90
16247;DHT22;8231;50.866;7.944;2022-10-16T08:59:50;16.40;99.90
16247;DHT22;8231;50.866;7.944;2022-10-16T09:02:24;16.30;99.90
16247;DHT22;8231;50.866;7.944;2022-10-16T09:05:18;16.20;99.90
16247;DHT22;8231;50.866;7.944;2022-10-16T09:07:56;16.10;99.90
16247;DHT22;8231;50.866;7.944;2022-10-16T09:10:37;16.10;99.90
16247;DHT22;8231;50.866;7.944;2022-10-16T09:13:14;16.30;99.90
16247;DHT22;8231;50.866;7.944;2022-10-16T09:16:12;16.50;99.90
16247;DHT22;8231;50.866;7.944;2022-10-16T09:18:45;16.60;99.90
16247;DHT22;8231;50.866;7.944;2022-10-16T09:21:19;16.90;99.90
16247;DHT22;8231;50.866;7.944;2022-10-16T09:23:50;17.20;99.90
16247;DHT22;8231;50.866;7.944;2022-10-16T09:26:18;17.50;99.90
16247;DHT22;8231;50.866;7.944;2022-10-16T09:28:52;17.60;99.90
16247;DHT22;8231;50.866;7.944;2022-10-16T09:31:22;17.70;99.90
16247;DHT22;8231;50.866;7.944;2022-10-16T09:33:55;17.80;99.90
16247;DHT22;8231;50.866;7.944;2022-10-16T09:36:26;17.80;99.90
16247;DHT22;8231;50.866;7.944;2022-10-16T09:39:04;17.80;99.90
16247;DHT22;8231;50.866;7.944;2022-10-16T09:41:34;17.70;99.90
16247;DHT22;8231;50.866;7.944;2022-10-16T09:44:05;17.60;99.90
16247;DHT22;8231;50.866;7.944;2022-10-16T09:46:36;17.70;99.90
16247;DHT22;8231;50.866;7.944;2022-10-16T09:49:20;17.70;99.90
16247;DHT22;8231;50.866;7.944;2022-10-16T09:51:49;17.80;99.90
16247;DHT22;8231;50.866;7.944;2022-10-16T09:54:19;17.70;99.90
16247;DHT22;8231;50.866;7.944;2022-10-16T09:56:48;17.80;99.90
16247;DHT22;8231;50.866;7.944;2022-10-16T09:59:20;17.90;99.90
16247;DHT22;8231;50.866;7.944;2022-10-16T10:01:53;17.90;99.90
16247;DHT22;8231;50.866;7.944;2022-10-16T10:04:23;18.20;99.90
16247;DHT22;8231;50.866;7.944;2022-10-16T10:06:53;18.30;99.90
16247;DHT22;8231;50.866;7.944;2022-10-16T10:09:24;18.40;99.90
16247;DHT22;8231;50.866;7.944;2022-10-16T10:11:54;18.40;99.90
16247;DHT22;8231;50.866;7.944;2022-10-16T10:14:34;18.50;99.90
16247;DHT22;8231;50.866;7.944;2022-10-16T10:17:16;18.60;99.90
16247;DHT22;8231;50.866;7.944;2022-10-16T10:19:51;18.80;99.90
16247;DHT22;8231;50.866;7.944;2022-10-16T10:22:23;19.00;99.90
16247;DHT22;8231;50.866;7.944;2022-10-16T10:25:20;19.20;99.90
16247;DHT22;8231;50.866;7.944;2022-10-16T10:28:00;19.30;99.90
16247;DHT22;8231;50.866;7.944;2022-10-16T10:30:35;19.30;99.90
16247;DHT22;8231;50.866;7.944;2022-10-16T10:33:19;19.30;99.90
16247;DHT22;8231;50.866;7.944;2022-10-16T10:35:54;19.40;99.90
16247;DHT22;8231;50.866;7.944;2022-10-16T10:38:30;19.60;99.90
16247;DHT22;8231;50.866;7.944;2022-10-16T10:41:10;19.80;99.90
16247;DHT22;8231;50.866;7.944;2022-10-16T10:43:52;19.80;99.90
16247;DHT22;8231;50.866;7.944;2022-10-16T10:46:32;19.90;99.90
16247;DHT22;8231;50.866;7.944;2022-10-16T10:49:25;20.10;99.90
16247;DHT22;8231;50.866;7.944;2022-10-16T10:52:06;20.20;99.90
16247;DHT22;8231;50.866;7.944;2022-10-16T10:54:48;20.10;99.90
16247;DHT22;8231;50.866;7.944;2022-10-16T10:57:24;19.90;99.90
16247;DHT22;8231;50.866;7.944;2022-10-16T11:00:00;19.70;99.90
16247;DHT22;8231;50.866;7.944;2022-10-16T11:02:35;19.70;99.90
16247;DHT22;8231;50.866;7.944;2022-10-16T11:05:35;19.60;99.90
16247;DHT22;8231;50.866;7.944;2022-10-16T11:08:09;19.70;99.90
16247;DHT22;8231;50.866;7.944;2022-10-16T11:10:45;19.70;99.90
16247;DHT22;8231;50.866;7.944;2022-10-16T11:13:21;19.50;99.90
16247;DHT22;8231;50.866;7.944;2022-10-16T11:15:55;19.30;99.90
16247;DHT22;8231;50.866;7.944;2022-10-16T11:18:27;19.50;99.90
16247;DHT22;8231;50.866;7.944;2022-10-16T11:21:02;19.40;99.90
16247;DHT22;8231;50.866;7.944;2022-10-16T11:23:37;19.40;99.90
16247;DHT22;8231;50.866;7.944;2022-10-16T11:26:13;19.70;99.90
16247;DHT22;8231;50.866;7.944;2022-10-16T11:28:45;19.80;99.90
16247;DHT22;8231;50.866;7.944;2022-10-16T11:31:19;20.00;99.90
16247;DHT22;8231;50.866;7.944;2022-10-16T11:33:55;20.20;99.90
16247;DHT22;8231;50.866;7.944;2022-10-16T11:36:33;20.40;99.90
16247;DHT22;8231;50.866;7.944;2022-10-16T11:39:11;20.60;99.90
16247;DHT22;8231;50.866;7.944;2022-10-16T11:41:45;20.50;99.90
16247;DHT22;8231;50.866;7.944;2022-10-16T11:44:35;20.70;99.90
16247;DHT22;8231;50.866;7.944;2022-10-16T11:47:13;21.20;99.90
16247;DHT22;8231;50.866;7.944;2022-10-16T11:50:09;21.80;99.90
16247;DHT22;8231;50.866;7.944;2022-10-16T11:52:51;21.80;99.90
16247;DHT22;8231;50.866;7.944;2022-10-16T11:55:24;22.50;99.90
16247;DHT22;8231;50.866;7.944;2022-10-16T11:58:00;23.50;99.90
16247;DHT22;8231;50.866;7.944;2022-10-16T12:00:35;24.00;99.90
16247;DHT22;8231;50.866;7.944;2022-10-16T12:03:12;23.70;99.90
16247;DHT22;8231;50.866;7.944;2022-10-16T12:05:55;23.60;99.90
16247;DHT22;8231;50.866;7.944;2022-10-16T12:08:27;24.00;99.90
16247;DHT22;8231;50.866;7.944;2022-10-16T12:11:06;24.40;99.90
16247;DHT22;8231;50.866;7.944;2022-10-16T12:13:36;25.60;99.90
16247;DHT22;8231;50.866;7.944;2022-10-16T12:16:21;25.80;99.90
16247;DHT22;8231;50.866;7.944;2022-10-16T12:18:50;25.40;99.90
16247;DHT22;8231;50.866;7.944;2022-10-16T12:21:31;24.80;99.90
16247;DHT22;8231;50.866;7.944;2022-10-16T12:24:02;24.40;99.90
16247;DHT22;8231;50.866;7.944;2022-10-16T12:26:33;23.80;99.90
16247;DHT22;8231;50.866;7.944;2022-10-16T12:29:13;23.40;99.90
16247;DHT22;8231;50.866;7.944;2022-10-16T12:31:45;23.10;99.90
16247;DHT22;8231;50.866;7.944;2022-10-16T12:34:28;23.10;99.90
16247;DHT22;8231;50.866;7.944;2022-10-16T12:37:08;23.30;99.90
16247;DHT22;8231;50.866;7.944;2022-10-16T12:39:39;23.70;99.90
16247;DHT22;8231;50.866;7.944;2022-10-16T12:42:21;23.80;99.90
16247;DHT22;8231;50.866;7.944;2022-10-16T12:44:51;23.90;99.90
16247;DHT22;8231;50.866;7.944;2022-10-16T12:47:22;24.30;99.90
16247;DHT22;8231;50.866;7.944;2022-10-16T12:49:52;24.80;99.90
16247;DHT22;8231;50.866;7.944;2022-10-16T12:52:26;26.60;99.40
16247;DHT22;8231;50.866;7.944;2022-10-16T12:54:57;27.40;96.60
16247;DHT22;8231;50.866;7.944;2022-10-16T12:57:39;27.50;97.20
16247;DHT22;8231;50.866;7.944;2022-10-16T13:00:16;27.20;95.00
16247;DHT22;8231;50.866;7.944;2022-10-16T13:03:04;26.40;96.10
16247;DHT22;8231;50.866;7.944;2022-10-16T13:05:49;25.60;97.90
16247;DHT22;8231;50.866;7.944;2022-10-16T13:08:33;25.10;99.50
16247;DHT22;8231;50.866;7.944;2022-10-16T13:11:12;24.80;99.80
16247;DHT22;8231;50.866;7.944;2022-10-16T13:14:02;24.40;99.90
16247;DHT22;8231;50.866;7.944;2022-10-16T13:16:48;24.00;99.90
16247;DHT22;8231;50.866;7.944;2022-10-16T13:19:22;23.70;99.90
16247;DHT22;8231;50.866;7.944;2022-10-16T13:21:58;23.50;99.90
16247;DHT22;8231;50.866;7.944;2022-10-16T13:24:45;23.20;99.90
16247;DHT22;8231;50.866;7.944;2022-10-16T13:27:23;23.20;99.90
16247;DHT22;8231;50.866;7.944;2022-10-16T13:30:01;23.00;99.90
16247;DHT22;8231;50.866;7.944;2022-10-16T13:32:30;22.90;99.90
16247;DHT22;8231;50.866;7.944;2022-10-16T13:34:58;22.60;99.90
16247;DHT22;8231;50.866;7.944;2022-10-16T13:37:27;22.60;99.90
16247;DHT22;8231;50.866;7.944;2022-10-16T13:40:06;22.50;99.90
16247;DHT22;8231;50.866;7.944;2022-10-16T13:42:36;22.30;99.90
16247;DHT22;8231;50.866;7.944;2022-10-16T13:45:17;22.20;99.90
16247;DHT22;8231;50.866;7.944;2022-10-16T13:47:45;22.10;99.90
16247;DHT22;8231;50.866;7.944;2022-10-16T13:50:15;22.00;99.90
16247;DHT22;8231;50.866;7.944;2022-10-16T13:52:44;21.80;99.90
16247;DHT22;8231;50.866;7.944;2022-10-16T13:55:14;21.50;99.90
16247;DHT22;8231;50.866;7.944;2022-10-16T13:57:44;21.30;99.90
16247;DHT22;8231;50.866;7.944;2022-10-16T14:00:21;21.20;99.90
16247;DHT22;8231;50.866;7.944;2022-10-16T14:03:01;21.20;99.90
16247;DHT22;8231;50.866;7.944;2022-10-16T14:05:29;21.30;99.90
16247;DHT22;8231;50.866;7.944;2022-10-16T14:07:58;21.20;99.90
16247;DHT22;8231;50.866;7.944;2022-10-16T14:10:29;21.20;99.90
16247;DHT22;8231;50.866;7.944;2022-10-16T14:13:01;21.20;99.90
16247;DHT22;8231;50.866;7.944;2022-10-16T14:15:30;21.10;99.90
16247;DHT22;8231;50.866;7.944;2022-10-16T14:17:59;21.20;99.90
16247;DHT22;8231;50.866;7.944;2022-10-16T14:20:30;20.90;99.90
16247;DHT22;8231;50.866;7.944;2022-10-16T14:23:00;20.80;99.90
16247;DHT22;8231;50.866;7.944;2022-10-16T14:25:30;20.60;99.90
16247;DHT22;8231;50.866;7.944;2022-10-16T14:28:02;20.50;99.90
16247;DHT22;8231;50.866;7.944;2022-10-16T14:30:32;20.30;99.90
16247;DHT22;8231;50.866;7.944;2022-10-16T14:33:02;20.30;99.90
16247;DHT22;8231;50.866;7.944;2022-10-16T14:35:32;20.40;99.90
16247;DHT22;8231;50.866;7.944;2022-10-16T14:38:02;20.20;99.90
16247;DHT22;8231;50.866;7.944;2022-10-16T14:40:32;20.10;99.90
16247;DHT22;8231;50.866;7.944;2022-10-16T14:43:03;20.00;99.90
16247;DHT22;8231;50.866;7.944;2022-10-16T14:45:34;20.00;99.90
16247;DHT22;8231;50.866;7.944;2022-10-16T14:48:05;20.00;99.90
16247;DHT22;8231;50.866;7.944;2022-10-16T14:50:34;20.00;99.90
16247;DHT22;8231;50.866;7.944;2022-10-16T14:53:08;19.90;99.90
16247;DHT22;8231;50.866;7.944;2022-10-16T14:55:39;20.00;99.90
16247;DHT22;8231;50.866;7.944;2022-10-16T14:58:14;20.00;99.90
16247;DHT22;8231;50.866;7.944;2022-10-16T15:00:43;20.00;99.90
16247;DHT22;8231;50.866;7.944;2022-10-16T15:03:11;19.90;99.90
16247;DHT22;8231;50.866;7.944;2022-10-16T15:05:39;19.90;99.90
16247;DHT22;8231;50.866;7.944;2022-10-16T15:08:07;20.00;99.90
16247;DHT22;8231;50.866;7.944;2022-10-16T15:10:39;19.80;99.90
16247;DHT22;8231;50.866;7.944;2022-10-16T15:13:11;19.70;99.90
16247;DHT22;8231;50.866;7.944;2022-10-16T15:15:42;19.60;99.90
16247;DHT22;8231;50.866;7.944;2022-10-16T15:18:11;19.50;99.90
16247;DHT22;8231;50.866;7.944;2022-10-16T15:20:41;19.40;99.90
16247;DHT22;8231;50.866;7.944;2022-10-16T15:23:14;19.40;99.90
16247;DHT22;8231;50.866;7.944;2022-10-16T15:25:44;19.30;99.90
16247;DHT22;8231;50.866;7.944;2022-10-16T15:28:15;19.30;99.90
16247;DHT22;8231;50.866;7.944;2022-10-16T15:30:44;19.20;99.90
16247;DHT22;8231;50.866;7.944;2022-10-16T15:33:14;19.30;99.90
16247;DHT22;8231;50.866;7.944;2022-10-16T15:35:46;19.20;99.90
16247;DHT22;8231;50.866;7.944;2022-10-16T15:38:16;19.10;99.90
16247;DHT22;8231;50.866;7.944;2022-10-16T15:40:46;19.10;99.90
16247;DHT22;8231;50.866;7.944;2022-10-16T15:43:16;19.00;99.90
16247;DHT22;8231;50.866;7.944;2022-10-16T15:45:44;18.90;99.90
16247;DHT22;8231;50.866;7.944;2022-10-16T15:48:13;18.90;99.90
16247;DHT22;8231;50.866;7.944;2022-10-16T15:50:41;18.90;99.90
16247;DHT22;8231;50.866;7.944;2022-10-16T15:53:15;18.70;99.90
16247;DHT22;8231;50.866;7.944;2022-10-16T15:55:43;18.50;99.90
16247;DHT22;8231;50.866;7.944;2022-10-16T15:58:11;18.50;99.90
16247;DHT22;8231;50.866;7.944;2022-10-16T16:00:40;18.40;99.90
16247;DHT22;8231;50.866;7.944;2022-10-16T16:03:08;18.40;99.90
16247;DHT22;8231;50.866;7.944;2022-10-16T16:05:37;18.40;99.90
16247;DHT22;8231;50.866;7.944;2022-10-16T16:08:12;18.20;99.90
16247;DHT22;8231;50.866;7.944;2022-10-16T16:10:40;18.10;99.90
16247;DHT22;8231;50.866;7.944;2022-10-16T16:13:08;18.10;99.90
16247;DHT22;8231;50.866;7.944;2022-10-16T16:15:40;18.00;99.90
16247;DHT22;8231;50.866;7.944;2022-10-16T16:18:09;17.90;99.90